createdAt,value
2023-05-05T00:03:35.993Z,8.73
2023-05-05T00:07:37.978Z,7.95
2023-05-05T00:11:39.925Z,8.52
2023-05-05T00:15:43.274Z,11.68
2023-05-05T00:19:45.303Z,9.75
2023-05-05T00:23:47.290Z,8.20
2023-05-05T00:27:49.288Z,8.60
2023-05-05T00:31:52.813Z,9.97
2023-05-05T00:35:55.083Z,8.93
2023-05-05T00:39:57.037Z,8.00
2023-05-05T00:43:59.163Z,11.10
2023-05-05T00:48:01.754Z,10.10
2023-05-05T00:52:05.034Z,9.77
2023-05-05T00:56:07.125Z,8.43
2023-05-05T01:00:11.159Z,8.67
2023-05-05T01:04:12.903Z,10.00
2023-05-05T01:08:23.325Z,11.30
2023-05-05T01:12:37.581Z,9.70
2023-05-05T01:16:43.837Z,10.63
2023-05-05T01:21:06.753Z,10.03
2023-05-05T01:25:11.947Z,12.80
2023-05-05T01:29:47.874Z,8.97
2023-05-05T01:33:58.189Z,10.47
2023-05-05T01:38:12.003Z,7.57
2023-05-05T01:42:18.446Z,12.50
2023-05-05T01:46:23.671Z,9.90
2023-05-05T01:50:28.641Z,9.70
2023-05-05T01:54:33.487Z,8.80
2023-05-05T01:58:37.586Z,11.87
2023-05-05T02:02:40.700Z,20.13
2023-05-05T02:06:44.383Z,12.50
2023-05-05T02:10:48.320Z,11.63
2023-05-05T02:14:52.263Z,7.93
2023-05-05T02:18:55.408Z,9.10
2023-05-05T02:22:58.161Z,8.63
2023-05-05T02:27:03.679Z,10.85
2023-05-05T02:31:07.374Z,9.10
2023-05-05T02:35:15.191Z,8.57
2023-05-05T02:39:30.652Z,11.77
2023-05-05T02:43:35.081Z,8.53
2023-05-05T02:47:38.124Z,7.70
2023-05-05T02:51:41.320Z,13.03
2023-05-05T02:56:26.728Z,12.70
2023-05-05T03:00:47.449Z,12.43
2023-05-05T03:04:55.212Z,9.33
2023-05-05T03:09:13.190Z,9.93
2023-05-05T03:13:20.117Z,15.77
2023-05-05T03:17:24.383Z,12.20
2023-05-05T03:21:27.586Z,11.53
2023-05-05T03:25:47.170Z,11.27
2023-05-05T03:30:12.075Z,13.50
2023-05-05T03:34:21.658Z,11.63
2023-05-05T03:38:24.170Z,13.27
2023-05-05T03:42:26.107Z,12.13
2023-05-05T03:46:28.863Z,13.07
2023-05-05T03:50:31.180Z,10.97
2023-05-05T03:54:33.415Z,10.00
2023-05-05T03:58:35.572Z,10.90
2023-05-05T04:02:38.043Z,11.50
2023-05-05T04:06:40.411Z,10.37
2023-05-05T04:10:42.952Z,11.03
2023-05-05T04:14:45.595Z,12.33
2023-05-05T04:18:48.949Z,9.47
2023-05-05T04:22:52.718Z,14.00
2023-05-05T04:26:56.401Z,11.67
2023-05-05T04:31:01.028Z,15.00
2023-05-05T04:35:06.151Z,11.67
2023-05-05T04:39:08.688Z,11.17
2023-05-05T04:43:11.320Z,13.07
2023-05-05T04:47:14.784Z,15.50
2023-05-05T04:51:17.965Z,16.17
2023-05-05T04:55:20.890Z,14.83
2023-05-05T04:59:22.862Z,10.70
2023-05-05T05:03:25.128Z,10.87
2023-05-05T05:07:27.202Z,11.27
2023-05-05T05:11:29.328Z,11.50
2023-05-05T05:15:31.136Z,12.77
2023-05-05T05:19:33.193Z,12.43
2023-05-05T05:23:35.542Z,10.00
2023-05-05T05:27:37.856Z,11.48
2023-05-05T05:31:40.063Z,16.75
2023-05-05T05:35:42.507Z,19.83
2023-05-05T05:39:52.196Z,15.70
2023-05-05T05:43:55.685Z,14.77
2023-05-05T05:47:58.236Z,14.45
2023-05-05T05:52:00.494Z,12.23
2023-05-05T05:56:02.854Z,24.90
2023-05-05T06:00:06.280Z,17.42
2023-05-05T06:04:13.638Z,16.30
2023-05-05T06:08:16.119Z,19.38
2023-05-05T06:12:22.571Z,17.88
2023-05-05T06:16:24.653Z,22.63
2023-05-05T06:20:26.812Z,16.30
2023-05-05T06:24:29.424Z,11.57
2023-05-05T06:28:31.787Z,13.25
2023-05-05T06:32:33.885Z,13.80
2023-05-05T06:36:36.098Z,10.98
2023-05-05T06:40:38.163Z,14.15
2023-05-05T06:44:40.231Z,13.50
2023-05-05T06:48:42.353Z,15.85
2023-05-05T06:52:44.434Z,15.15
2023-05-05T06:56:46.682Z,13.18
2023-05-05T07:00:48.615Z,12.30
2023-05-05T07:04:51.016Z,13.32
2023-05-05T07:08:52.918Z,14.23
2023-05-05T07:12:54.987Z,14.68
2023-05-05T07:16:57.015Z,13.57
2023-05-05T07:20:59.037Z,13.38
2023-05-05T07:25:00.958Z,12.65
2023-05-05T07:29:05.628Z,12.90
2023-05-05T07:33:08.330Z,12.65
2023-05-05T07:37:10.357Z,16.45
2023-05-05T07:41:13.084Z,12.50
2023-05-05T07:45:14.975Z,12.32
2023-05-05T07:49:17.614Z,11.18
2023-05-05T07:53:19.861Z,10.77
2023-05-05T07:57:21.769Z,8.57
2023-05-05T08:01:23.741Z,8.32
2023-05-05T08:05:25.863Z,7.95
2023-05-05T08:09:27.682Z,11.68
2023-05-05T08:13:30.376Z,4.93
2023-05-05T08:17:47.963Z,6.78
2023-05-05T08:21:50.391Z,3.53
2023-05-05T08:25:52.394Z,4.45
2023-05-05T08:29:54.411Z,6.00
2023-05-05T08:33:56.646Z,6.35
2023-05-05T08:37:59.249Z,4.00
2023-05-05T08:42:02.561Z,3.53
2023-05-05T08:46:05.178Z,6.20
2023-05-05T08:50:10.448Z,3.47
2023-05-05T08:54:19.832Z,2.80
2023-05-05T08:58:23.609Z,3.85
2023-05-05T09:02:29.924Z,6.30
2023-05-05T09:06:33.757Z,6.82
2023-05-05T09:10:36.734Z,4.50
2023-05-05T09:14:38.681Z,5.38
2023-05-05T09:18:42.533Z,4.78
2023-05-05T09:22:46.734Z,4.15
2023-05-05T09:26:48.787Z,5.88
2023-05-05T09:30:51.007Z,4.00
2023-05-05T09:35:01.057Z,5.55
2023-05-05T09:39:07.328Z,6.40
2023-05-05T09:43:09.298Z,5.38
2023-05-05T09:47:26.104Z,5.57
2023-05-05T09:51:31.786Z,8.32
2023-05-05T09:55:35.978Z,6.22
2023-05-05T09:59:39.009Z,5.22
2023-05-05T10:03:52.940Z,5.72
2023-05-05T10:07:54.855Z,5.78
2023-05-05T10:11:59.666Z,7.32
2023-05-05T10:16:03.670Z,5.80
2023-05-05T10:20:09.969Z,6.68
2023-05-05T10:24:52.840Z,7.53
2023-05-05T10:28:56.312Z,5.10
2023-05-05T10:33:30.357Z,12.57
2023-05-05T10:37:37.105Z,10.48
2023-05-05T10:41:39.228Z,5.65
2023-05-05T10:45:43.110Z,4.85
2023-05-05T10:49:53.997Z,5.60
2023-05-05T10:54:24.613Z,4.75
2023-05-05T10:58:46.882Z,4.72
2023-05-05T11:03:16.703Z,4.78
2023-05-05T11:07:22.997Z,4.90
2023-05-05T11:12:03.461Z,6.03
2023-05-05T11:16:06.350Z,6.60
2023-05-05T11:20:09.475Z,5.22
2023-05-05T11:24:29.134Z,4.78
2023-05-05T11:28:31.697Z,3.40
2023-05-05T11:32:34.072Z,5.93
2023-05-05T11:36:40.904Z,2.53
2023-05-05T11:40:45.626Z,3.58
2023-05-05T11:44:47.880Z,2.22
2023-05-05T11:48:53.750Z,2.85
2023-05-05T11:52:55.823Z,2.28
2023-05-05T11:56:59.128Z,3.88
2023-05-05T12:01:04.585Z,4.15
2023-05-05T12:05:07.018Z,3.33
2023-05-05T12:09:20.075Z,3.95
2023-05-05T12:13:21.980Z,3.03
2023-05-05T12:17:24.232Z,3.00
2023-05-05T12:21:26.306Z,4.13
2023-05-05T12:25:36.876Z,4.18
2023-05-05T12:29:39.130Z,2.45
2023-05-05T12:33:42.290Z,2.03
2023-05-05T12:37:44.744Z,1.67
2023-05-05T12:41:47.244Z,4.43
2023-05-05T12:45:58.770Z,2.33
2023-05-05T12:50:03.274Z,1.40
2023-05-05T12:54:12.544Z,2.30
2023-05-05T12:58:14.323Z,1.80
2023-05-05T13:02:16.915Z,2.70
2023-05-05T13:06:24.437Z,2.45
2023-05-05T13:10:28.091Z,4.63
2023-05-05T13:14:33.764Z,1.52
2023-05-05T13:18:49.291Z,1.40
2023-05-05T13:22:51.327Z,3.60
2023-05-05T13:26:53.396Z,3.80
2023-05-05T13:30:56.076Z,4.00
2023-05-05T13:34:58.189Z,2.50
2023-05-05T13:39:00.592Z,1.67
2023-05-05T13:43:02.752Z,2.03
2023-05-05T13:47:04.898Z,1.83
2023-05-05T13:51:07.052Z,3.33
2023-05-05T13:55:09.708Z,5.40
2023-05-05T13:59:11.891Z,1.80
2023-05-05T14:03:14.078Z,3.53
2023-05-05T14:07:16.199Z,2.10
2023-05-05T14:11:18.353Z,2.70
2023-05-05T14:15:20.416Z,2.13
2023-05-05T14:19:22.186Z,2.05
2023-05-05T14:23:24.248Z,1.83
2023-05-05T14:27:26.355Z,2.08
2023-05-05T14:31:28.678Z,2.50
2023-05-05T14:35:31.414Z,1.65
2023-05-05T14:39:33.600Z,2.17
2023-05-05T14:43:36.776Z,2.08
2023-05-05T14:47:38.736Z,1.25
2023-05-05T14:51:41.644Z,2.60
2023-05-05T14:55:44.470Z,1.73
2023-05-05T14:59:46.338Z,1.55
2023-05-05T15:03:48.369Z,2.83
2023-05-05T15:07:50.473Z,3.20
2023-05-05T15:11:52.468Z,1.73
2023-05-05T15:15:54.265Z,2.60
2023-05-05T15:19:56.083Z,1.58
2023-05-05T15:23:58.237Z,4.70
2023-05-05T15:28:00.913Z,1.70
2023-05-05T15:32:03.165Z,3.00
2023-05-05T15:36:05.594Z,3.92
2023-05-05T15:40:08.290Z,3.83
2023-05-05T15:44:12.279Z,2.67
2023-05-05T15:48:14.387Z,4.20
2023-05-05T15:52:16.862Z,2.50
2023-05-05T15:56:19.147Z,1.70
2023-05-05T16:00:21.384Z,4.85
2023-05-05T16:04:23.321Z,5.68
2023-05-05T16:08:25.305Z,5.47
2023-05-05T16:12:27.655Z,9.90
2023-05-05T16:16:29.691Z,3.67
2023-05-05T16:20:31.588Z,5.63
2023-05-05T16:24:33.819Z,5.55
2023-05-05T16:28:36.005Z,4.53
2023-05-05T16:32:38.150Z,3.00
2023-05-05T16:36:41.583Z,6.80
2023-05-05T16:40:44.910Z,6.43
2023-05-05T16:44:47.089Z,6.82
2023-05-05T16:48:48.990Z,5.00
2023-05-05T16:52:51.363Z,6.57
2023-05-05T16:56:53.745Z,6.25
2023-05-05T17:00:55.573Z,8.02
2023-05-05T17:04:57.435Z,3.35
2023-05-05T17:08:59.769Z,7.03
2023-05-05T17:13:01.745Z,7.10
2023-05-05T17:17:04.046Z,5.38
2023-05-05T17:21:06.301Z,26.92
2023-05-05T17:25:09.017Z,5.93
2023-05-05T17:29:12.959Z,5.85
2023-05-05T17:33:18.306Z,11.25
2023-05-05T17:37:20.376Z,4.80
2023-05-05T17:41:22.564Z,6.38
2023-05-05T17:45:24.680Z,7.85
2023-05-05T17:49:26.650Z,26.55
2023-05-05T17:53:28.607Z,10.63
2023-05-05T17:57:30.568Z,7.18
2023-05-05T18:01:32.531Z,11.88
2023-05-05T18:05:35.269Z,9.48
2023-05-05T18:09:37.134Z,15.85
2023-05-05T18:13:39.473Z,8.90
2023-05-05T18:17:41.633Z,16.95
2023-05-05T18:21:43.701Z,13.88
2023-05-05T18:25:46.425Z,12.02
2023-05-05T18:29:48.674Z,13.52
2023-05-05T18:33:51.018Z,17.75
2023-05-05T18:37:54.417Z,10.35
2023-05-05T18:41:56.609Z,12.90
2023-05-05T18:45:58.632Z,10.30
2023-05-05T18:50:00.709Z,11.23
2023-05-05T18:54:03.018Z,12.07
2023-05-05T18:58:04.930Z,11.45
2023-05-05T19:02:07.844Z,11.05
2023-05-05T19:06:10.063Z,8.52
2023-05-05T19:10:12.009Z,10.45
2023-05-05T19:14:14.211Z,12.13
2023-05-05T19:18:16.374Z,7.22
2023-05-05T19:22:18.972Z,12.95
2023-05-05T19:26:21.750Z,14.00
2023-05-05T19:30:24.123Z,18.48
2023-05-05T19:34:26.459Z,9.25
2023-05-05T19:38:29.196Z,7.45
2023-05-05T19:42:31.189Z,7.47
2023-05-05T19:46:33.318Z,10.82
2023-05-05T19:50:35.617Z,8.80
2023-05-05T19:54:38.716Z,7.47
2023-05-05T19:59:00.832Z,9.60
2023-05-05T20:03:03.173Z,7.53
2023-05-05T20:07:05.351Z,6.20
2023-05-05T20:11:07.456Z,10.13
2023-05-05T20:15:11.296Z,11.65
2023-05-05T20:19:13.612Z,12.38
2023-05-05T20:23:15.776Z,8.85
2023-05-05T20:27:17.908Z,9.13
2023-05-05T20:31:20.169Z,8.50
2023-05-05T20:35:22.418Z,8.20
2023-05-05T20:39:24.308Z,9.15
2023-05-05T20:43:26.428Z,47.35
2023-05-05T20:47:28.516Z,8.38
2023-05-05T20:51:34.229Z,5.75
2023-05-05T20:55:36.644Z,6.28
2023-05-05T20:59:38.634Z,6.90
2023-05-05T21:03:40.594Z,6.75
2023-05-05T21:07:42.577Z,7.43
2023-05-05T21:11:44.336Z,5.10
2023-05-05T21:15:46.129Z,8.60
2023-05-05T21:19:48.334Z,7.05
2023-05-05T21:23:50.769Z,7.00
2023-05-05T21:27:53.167Z,6.75
2023-05-05T21:31:55.150Z,6.43
2023-05-05T21:35:57.383Z,9.55
2023-05-05T21:39:59.276Z,6.38
2023-05-05T21:44:01.458Z,8.45
2023-05-05T21:48:03.791Z,6.30
2023-05-05T21:52:05.826Z,5.85
2023-05-05T21:56:10.595Z,6.45
2023-05-05T22:00:16.719Z,9.55
2023-05-05T22:04:18.923Z,6.22
2023-05-05T22:08:21.160Z,8.32
2023-05-05T22:12:23.242Z,5.70
2023-05-05T22:16:25.632Z,6.75
2023-05-05T22:20:28.830Z,7.20
2023-05-05T22:24:31.056Z,6.45
2023-05-05T22:28:33.191Z,6.53
2023-05-05T22:32:35.296Z,11.43
2023-05-05T22:36:37.139Z,7.68
2023-05-05T22:40:39.309Z,9.65
2023-05-05T22:44:41.311Z,5.90
2023-05-05T22:48:43.427Z,13.45
2023-05-05T22:52:45.393Z,15.52
2023-05-05T22:56:47.497Z,9.30
2023-05-05T23:00:49.458Z,6.25
2023-05-05T23:04:52.652Z,7.93
2023-05-05T23:08:54.844Z,8.20
2023-05-05T23:12:56.663Z,8.00
2023-05-05T23:16:58.774Z,7.10
2023-05-05T23:21:01.273Z,7.45
2023-05-05T23:25:03.306Z,8.50
2023-05-05T23:29:05.971Z,8.85
2023-05-05T23:33:08.021Z,12.43
2023-05-05T23:37:10.415Z,8.85
2023-05-05T23:41:12.188Z,9.95
2023-05-05T23:45:14.316Z,7.35
2023-05-05T23:49:16.219Z,8.57
2023-05-05T23:53:18.433Z,8.48
2023-05-05T23:57:20.753Z,8.82
